Kenansville, NC (28349)

5:50 AM EST on February 10, 2016 (GMT -0500)
Duplin Country Club Estates | | Change Station
CLOSE
Current Station
Personal Weather Station
Location: Kenansville, NC
Elevation: 118 ft
Nearby Weather Stations
Active Advisory: Flood Warning

Elev 118 ft 34.99 °N, 78.01 °W | Updated 0 second ago

Clear
Clear
28.9 °F
Feels Like 29 °F
N
0.0
Wind Variable Wind from West
Gusts 0.0 mph

Today
High -- | Low -- °F
--% Chance of Precip.
Yesterday
High -- | Low -- °F
Precip. -- in
Pressure 29.92 in
Visibility 10.0 miles
Clouds Clear
Windchill 29 °F
Dew Point 16 °F
Humidity 57%
Rainfall 0.00 in
Snow Depth Not available.
7:03 AM 5:49 PM
Waxing Crescent, 5% visible
METAR KDPL 101035Z AUTO 00000KT 10SM CLR M02/M09 A2992 RMK AO2 T10221087
Pressure 29.92 in
Visibility 10.0 miles
Clouds Clear
Windchill 29 °F
Dew Point 16 °F
Humidity 57%
Rainfall 0.00 in
Snow Depth Not available.
7:03 AM 5:49 PM
Waxing Crescent, 5% visible
METAR KDPL 101035Z AUTO 00000KT 10SM CLR M02/M09 A2992 RMK AO2 T10221087

10-Day Weather Forecast

Almanac

Astronomy

Feb. 10, 2016 Rise Set
Actual Time
Civil Twilight
Nautical Twilight
Astronomical Twilight
Moon
Length of Visible Light
Length of Day
Tomorrow will be .
, % of the Moon is Illuminated

Today's Extremes

State Highs State Lows

Community

WunderPhotos

Upload Photos

1,891,830 photos uploaded!

WunderBlog® & News

Nearby

Air Quality

  Air Quality AQ Index Pollutant
Not available.

Snow Depth

Station Depth Elevation

Earthquake Activity

City Distance Mag. Time & Date
Minimum magnitude displayed is 2.5.

Coastal Water Temperatures

Place Temperature

Stations

Nearby Weather Stations

Station Location Temp. Windchill Dew Point Humidity Wind Precip. Elev Updated Type
                   

Watches & Warnings

Flood Warning
Issued: 8:19 PM EST Feb. 9, 2016 – National Weather Service

The Flood Warning extended for
the Northeast Cape fear river near Chinquapin.
* Until Sunday afternoon... or until the warning is cancelled.
* At 7 PM Tuesday the stage was 14.8 feet.
* Minor flooding is occurring and minor flooding is forecast.
* Flood stage is 13.0 feet.
* Forecast... the river will continue to fall to below flood stage by
Sunday morning.
* Impact... at 15.0 feet... secondary roads adjacent to the river will
begin to get flooded and may be impassable. Tributaries that dump
into the river will also flood secondary roads. Residents who live
adjacent to the river need to move property to higher ground.

                  Fld observed forecast 8pm
location stg stg day time Wed Thu Fri
Chinquapin 13 14.8 Tue 07 PM 14.7 14.4 14.0

Lat... Lon 3491 7779 3481 7777 3472 7786 3472 7798
          3482 7791 3491 7792